createdAt,value
2019-01-30T15:01:06.472Z,23.40
2019-01-30T15:04:01.205Z,23.40
2019-01-30T15:06:55.684Z,23.50
2019-01-30T15:09:50.551Z,23.70
2019-01-30T15:12:46.326Z,23.90
2019-01-30T15:15:41.035Z,24.00
2019-01-30T15:18:36.137Z,24.10
2019-01-30T15:21:30.721Z,24.20
2019-01-30T15:24:25.348Z,24.30
2019-01-30T15:27:22.517Z,24.40
2019-01-30T15:30:30.371Z,24.40
2019-01-30T15:33:25.240Z,24.50
2019-01-30T15:36:19.650Z,24.50
2019-01-30T15:39:14.156Z,24.60
2019-01-30T15:42:08.967Z,24.60
2019-01-30T15:45:03.217Z,24.60
2019-01-30T15:47:58.432Z,24.70
2019-01-30T15:50:52.790Z,24.70
2019-01-30T15:53:47.777Z,24.70
2019-01-30T15:56:42.352Z,24.80
2019-01-30T15:59:37.139Z,24.80
2019-01-30T16:02:32.110Z,24.80
2019-01-30T16:05:26.884Z,24.80
2019-01-30T16:08:21.897Z,24.80
2019-01-30T16:11:16.649Z,24.90
2019-01-30T16:14:13.575Z,24.90
2019-01-30T16:17:08.631Z,24.90
2019-01-30T16:20:03.415Z,24.90
2019-01-30T16:22:58.324Z,25.00
2019-01-30T16:25:53.057Z,25.00
2019-01-30T16:28:47.706Z,25.00
2019-01-30T16:31:42.422Z,25.10
2019-01-30T16:34:37.100Z,25.10
2019-01-30T16:37:31.586Z,25.10
2019-01-30T16:40:26.493Z,25.20
2019-01-30T16:43:20.770Z,25.20
2019-01-30T16:46:15.384Z,25.20
2019-01-30T16:49:09.966Z,25.20
2019-01-30T16:52:04.594Z,25.20
2019-01-30T16:54:58.902Z,25.20
2019-01-30T16:57:53.213Z,25.20
2019-01-30T17:00:48.334Z,25.20
2019-01-30T17:03:42.868Z,25.20
2019-01-30T17:06:38.002Z,25.20
2019-01-30T17:09:32.642Z,25.20
2019-01-30T17:12:27.540Z,25.20
2019-01-30T17:15:25.230Z,25.20
2019-01-30T17:18:19.868Z,25.30
2019-01-30T17:21:14.843Z,25.30
2019-01-30T17:24:09.291Z,25.30
2019-01-30T17:27:03.920Z,25.40
2019-01-30T17:29:58.263Z,25.40
2019-01-30T17:32:53.333Z,25.40
2019-01-30T17:35:48.408Z,25.40
2019-01-30T17:38:43.386Z,25.30
2019-01-30T17:41:38.308Z,25.40
2019-01-30T17:44:33.279Z,25.40
2019-01-30T17:47:28.254Z,25.30
2019-01-30T17:50:24.640Z,25.40
2019-01-30T17:53:19.201Z,25.40
2019-01-30T17:56:13.725Z,25.40
2019-01-30T17:59:08.298Z,25.40
2019-01-30T18:02:02.672Z,25.40
2019-01-30T18:04:59.294Z,25.40
2019-01-30T18:07:54.190Z,25.40
2019-01-30T18:10:52.040Z,25.40
2019-01-30T18:13:46.450Z,25.50
2019-01-30T18:16:41.575Z,25.50
2019-01-30T18:19:36.313Z,25.50
2019-01-30T18:22:30.984Z,25.50
2019-01-30T18:25:25.869Z,25.50
2019-01-30T18:28:21.499Z,25.50
2019-01-30T18:31:16.229Z,25.50
2019-01-30T18:34:11.476Z,25.50
2019-01-30T18:37:06.054Z,25.50
2019-01-30T18:40:00.673Z,25.60
2019-01-30T18:42:56.195Z,25.60
2019-01-30T18:45:51.012Z,25.60
2019-01-30T18:48:45.975Z,25.60
2019-01-30T18:51:40.603Z,25.60
2019-01-30T18:54:35.236Z,25.60
2019-01-30T18:57:30.261Z,25.60
2019-01-30T19:00:40.569Z,25.70
2019-01-30T19:03:35.174Z,25.70
2019-01-30T19:06:29.556Z,25.70
2019-01-30T19:09:24.307Z,25.70
2019-01-30T19:12:18.752Z,25.70
2019-01-30T19:15:20.290Z,25.80
2019-01-30T19:18:16.482Z,25.80
2019-01-30T19:21:10.994Z,25.80
2019-01-30T19:24:06.222Z,25.80
2019-01-30T19:27:01.168Z,25.80
2019-01-30T19:29:55.752Z,25.80
2019-01-30T19:32:50.493Z,25.80
2019-01-30T19:35:45.106Z,25.80
2019-01-30T19:38:39.823Z,25.80
2019-01-30T19:41:34.402Z,25.90
2019-01-30T19:44:28.944Z,25.90
2019-01-30T19:47:23.883Z,25.90
2019-01-30T19:50:21.415Z,25.90
2019-01-30T19:53:17.511Z,25.90
2019-01-30T19:56:12.157Z,25.90
2019-01-30T19:59:06.681Z,25.90
2019-01-30T20:02:00.937Z,25.90
2019-01-30T20:04:55.661Z,25.80
2019-01-30T20:07:50.385Z,25.80
2019-01-30T20:10:46.394Z,25.70
2019-01-30T20:13:41.242Z,25.60
2019-01-30T20:16:35.977Z,25.50
2019-01-30T20:19:30.770Z,25.50
2019-01-30T20:22:26.071Z,25.50
2019-01-30T20:25:28.802Z,25.40
2019-01-30T20:28:23.473Z,25.40
2019-01-30T20:31:18.454Z,25.30
2019-01-30T20:34:13.131Z,25.30
2019-01-30T20:37:07.537Z,25.20
2019-01-30T20:40:02.991Z,25.20
2019-01-30T20:42:57.786Z,25.10
2019-01-30T20:45:52.399Z,25.10
2019-01-30T20:48:51.647Z,25.00
2019-01-30T20:51:43.520Z,25.10
2019-01-30T20:54:38.397Z,25.20
2019-01-30T20:57:33.083Z,25.20
2019-01-30T21:00:31.367Z,25.20
2019-01-30T21:03:26.225Z,25.20
2019-01-30T21:06:21.387Z,25.20
2019-01-30T21:09:16.404Z,25.20
2019-01-30T21:12:11.256Z,25.20
2019-01-30T21:15:06.282Z,25.20
2019-01-30T21:18:01.019Z,25.20
2019-01-30T21:20:55.743Z,25.20
2019-01-30T21:23:50.574Z,25.20
2019-01-30T21:26:45.743Z,25.20
2019-01-30T21:29:40.148Z,25.20
2019-01-30T21:32:35.085Z,25.20
2019-01-30T21:35:29.750Z,25.20
2019-01-30T21:38:24.504Z,25.30
2019-01-30T21:41:18.890Z,25.30
2019-01-30T21:44:15.289Z,25.30
2019-01-30T21:47:09.570Z,25.30
2019-01-30T21:50:08.309Z,25.30
2019-01-30T21:53:02.602Z,25.30
2019-01-30T21:55:58.212Z,25.30
2019-01-30T21:58:53.938Z,25.30
2019-01-30T22:01:48.804Z,25.30
2019-01-30T22:04:43.431Z,25.30
2019-01-30T22:07:38.597Z,25.30
2019-01-30T22:10:33.250Z,25.30
2019-01-30T22:13:28.339Z,25.30
2019-01-30T22:16:23.089Z,25.20
2019-01-30T22:19:18.127Z,25.20
2019-01-30T22:22:12.918Z,25.20
2019-01-30T22:25:19.678Z,25.20
2019-01-30T22:28:05.855Z,25.20
2019-01-30T22:31:00.735Z,25.20
2019-01-30T22:33:56.770Z,25.20
2019-01-30T22:36:51.191Z,25.20
2019-01-30T22:39:46.047Z,25.20
2019-01-30T22:42:40.657Z,25.20
2019-01-30T22:45:35.557Z,25.20
2019-01-30T22:48:30.339Z,25.20
2019-01-30T22:51:25.274Z,25.20
2019-01-30T22:54:19.911Z,25.20
2019-01-30T22:57:14.784Z,25.20
2019-01-30T23:01:05.568Z,25.20
2019-01-30T23:04:52.848Z,25.20
2019-01-30T23:08:23.324Z,25.10
2019-01-30T23:12:19.161Z,25.00
2019-01-30T23:15:34.305Z,25.00
2019-01-30T23:19:22.644Z,25.00
2019-01-30T23:22:58.295Z,25.00
2019-01-30T23:27:04.479Z,24.90
2019-01-30T23:30:54.221Z,24.90
2019-01-30T23:34:27.644Z,25.00
2019-01-30T23:38:16.901Z,24.90
2019-01-30T23:41:24.882Z,25.00
2019-01-30T23:44:44.358Z,25.00
2019-01-30T23:48:16.394Z,25.00
2019-01-30T23:52:08.118Z,25.00
